Time;durP1;ratioP1;P1;durP2;ratioP2;P2;SDS_P1;SDS_P2;PMS_P1;PMS_P2;Temp;Humidity;BMP_temperature;BMP_pressure;BME280_temperature;BME280_humidity;BME280_pressure;Samples;Min_cycle;Max_cycle;Signal;HPM_P1;HPM_P2
2021/03/15 00:02:02;;;;;;;4.03;3.07;;;;;;;4.50;96.11;98482.47;4950347;28;103211;-82
2021/03/15 00:04:30;;;;;;;3.40;2.90;;;;;;;4.42;95.81;98478.56;4980919;28;103173;-87
2021/03/15 00:06:57;;;;;;;4.13;2.40;;;;;;;4.47;95.45;98476.53;4972767;28;105167;-87
2021/03/15 00:09:24;;;;;;;4.33;2.60;;;;;;;4.55;94.83;98475.22;4969201;28;103780;-87
2021/03/15 00:11:52;;;;;;;5.90;2.73;;;;;;;4.46;94.59;98474.88;4986717;28;102696;-89
2021/03/15 00:14:20;;;;;;;3.83;2.90;;;;;;;4.47;94.37;98476.53;4978907;28;103165;-87
2021/03/15 00:16:51;;;;;;;4.60;2.80;;;;;;;4.41;94.47;98476.84;4961761;28;107126;-83
2021/03/15 00:19:18;;;;;;;6.20;3.00;;;;;;;4.34;94.23;98470.25;4973101;28;104145;-86
2021/03/15 00:21:45;;;;;;;5.53;2.90;;;;;;;4.40;94.57;98469.94;4969519;28;102778;-85
2021/03/15 00:24:13;;;;;;;3.60;2.03;;;;;;;4.45;94.41;98460.09;4973194;28;103273;-85
2021/03/15 00:26:40;;;;;;;3.10;2.47;;;;;;;4.42;94.17;98462.88;4966955;28;104118;-87
2021/03/15 00:29:07;;;;;;;3.77;3.10;;;;;;;4.32;94.49;98462.50;4966874;28;103805;-87
2021/03/15 00:31:34;;;;;;;3.13;2.70;;;;;;;4.36;94.45;98460.56;4973983;28;102955;-89
2021/03/15 00:34:02;;;;;;;2.73;2.20;;;;;;;4.41;94.03;98453.31;4972257;28;103321;-89
2021/03/15 00:36:29;;;;;;;5.57;2.63;;;;;;;4.34;94.53;98459.78;4971084;28;109706;-89
2021/03/15 00:38:56;;;;;;;3.93;2.80;;;;;;;4.33;94.71;98460.72;4966499;28;103354;-87
2021/03/15 00:41:23;;;;;;;2.53;2.20;;;;;;;4.39;94.37;98463.03;4967286;28;102684;-87
2021/03/15 00:43:50;;;;;;;3.80;3.30;;;;;;;4.38;94.71;98454.31;4970770;28;102977;-87
2021/03/15 00:46:17;;;;;;;2.33;2.13;;;;;;;4.38;93.96;98454.31;4967562;28;104123;-88
2021/03/15 00:48:44;;;;;;;4.07;3.17;;;;;;;4.38;93.65;98456.94;4966657;28;103042;-88
2021/03/15 00:51:13;;;;;;;2.47;2.27;;;;;;;4.27;95.05;98454.03;4967449;28;102555;-87
2021/03/15 00:53:40;;;;;;;3.83;2.63;;;;;;;4.20;95.07;98451.81;4976866;28;102769;-88
2021/03/15 00:56:08;;;;;;;4.53;2.77;;;;;;;4.32;94.92;98448.56;4973163;28;104969;-88
2021/03/15 00:58:35;;;;;;;6.10;3.53;;;;;;;4.05;96.04;98453.41;4952255;28;104422;-87
2021/03/15 01:01:04;;;;;;;3.63;3.23;;;;;;;4.16;96.61;98451.09;4954841;28;102662;-85
2021/03/15 01:03:43;;;;;;;2.97;2.67;;;;;;;4.24;95.96;98448.13;4957689;28;103296;-86
2021/03/15 01:06:12;;;;;;;3.47;2.60;;;;;;;4.17;96.03;98447.56;4975515;28;104875;-86
2021/03/15 01:08:52;;;;;;;2.33;2.13;;;;;;;4.27;95.99;98442.72;4948665;28;104521;-88
2021/03/15 01:11:26;;;;;;;4.93;2.30;;;;;;;4.18;95.76;98453.66;4984528;28;102976;-85
2021/03/15 01:13:59;;;;;;;6.53;3.20;;;;;;;3.97;95.88;98442.50;4953807;28;102957;-86
2021/03/15 01:16:42;;;;;;;2.53;1.93;;;;;;;4.05;95.56;98449.03;4969383;28;104003;-86
2021/03/15 01:19:11;;;;;;;3.70;2.57;;;;;;;4.03;95.74;98450.88;4981262;28;104232;-88
2021/03/15 01:21:38;;;;;;;4.30;3.33;;;;;;;3.87;96.03;98441.28;4938815;28;102687;-88
2021/03/15 01:24:07;;;;;;;5.83;2.97;;;;;;;3.87;96.27;98443.88;4973673;28;103204;-86
2021/03/15 01:26:34;;;;;;;2.57;2.20;;;;;;;3.88;95.76;98441.19;4948753;28;103800;-84
2021/03/15 01:29:01;;;;;;;3.07;2.40;;;;;;;3.87;95.52;98439.50;4967594;28;104130;-88
2021/03/15 01:31:28;;;;;;;2.57;2.30;;;;;;;3.84;95.13;98444.88;4978960;28;102858;-88
2021/03/15 01:33:55;;;;;;;5.63;2.97;;;;;;;3.68;95.56;98441.31;4966373;28;103108;-87
2021/03/15 01:36:22;;;;;;;2.60;2.40;;;;;;;3.69;96.23;98443.00;4984280;28;103314;-89
2021/03/15 01:38:49;;;;;;;4.13;3.03;;;;;;;3.69;95.56;98436.94;4980423;28;103940;-86
2021/03/15 01:41:17;;;;;;;3.50;2.50;;;;;;;3.55;95.63;98441.97;4983306;28;102667;-85
2021/03/15 01:43:44;;;;;;;3.77;3.17;;;;;;;3.52;95.52;98432.53;4972117;28;102987;-89
2021/03/15 01:46:11;;;;;;;4.03;2.70;;;;;;;3.53;95.39;98431.63;4979190;28;103260;-87
2021/03/15 01:48:38;;;;;;;4.47;3.43;;;;;;;3.36;96.07;98421.97;4984625;28;103736;-85
2021/03/15 01:51:05;;;;;;;5.40;2.90;;;;;;;3.38;96.83;98424.50;4976037;28;103024;-84
2021/03/15 01:53:33;;;;;;;4.37;2.30;;;;;;;3.42;96.93;98426.88;4970162;28;102918;-86
2021/03/15 01:56:00;;;;;;;4.53;2.97;;;;;;;3.43;96.66;98427.75;4984751;28;103370;-87
2021/03/15 01:58:28;;;;;;;3.17;2.27;;;;;;;3.40;96.52;98425.28;4970372;28;102834;-86
2021/03/15 02:07:03;;;;;;;3.07;2.63;;;;;;;3.27;95.57;98405.91;4790117;29;105150;-84
2021/03/15 02:09:30;;;;;;;2.20;2.00;;;;;;;3.30;96.05;98405.75;4796061;29;104356;-87
2021/03/15 02:12:10;;;;;;;5.90;3.20;;;;;;;3.14;94.90;98384.75;4812588;29;103085;-83
2021/03/15 02:14:48;;;;;;;3.00;2.10;;;;;;;3.14;96.37;98381.31;4812813;29;103162;-87
2021/03/15 02:17:22;;;;;;;4.20;2.73;;;;;;;3.10;96.10;98382.34;4811239;29;104679;-88
2021/03/15 02:20:10;;;;;;;2.23;1.77;;;;;;;3.08;96.28;98374.59;4807519;29;103698;-88
2021/03/15 02:23:01;;;;;;;2.97;2.00;;;;;;;3.04;96.99;98380.03;4807393;29;103130;-87
2021/03/15 02:26:15;;;;;;;7.43;3.33;;;;;;;2.98;96.02;98369.88;4795249;29;103786;-83
2021/03/15 02:29:06;;;;;;;3.50;2.70;;;;;;;3.04;96.22;98364.38;4791115;29;103280;-88
2021/03/15 02:31:52;;;;;;;7.13;3.00;;;;;;;3.06;96.80;98360.75;4790652;29;105135;-88
2021/03/15 02:34:59;;;;;;;4.00;2.63;;;;;;;3.10;96.56;98353.63;4795542;29;102887;-84
2021/03/15 02:37:50;;;;;;;4.20;2.63;;;;;;;3.06;96.47;98349.50;4793683;29;103276;-87
2021/03/15 02:40:24;;;;;;;4.70;3.20;;;;;;;2.91;97.13;98344.09;4810726;29;103360;-87
2021/03/15 02:42:54;;;;;;;4.53;2.70;;;;;;;2.80;98.78;98335.91;4811720;29;104609;-89
2021/03/15 02:45:23;;;;;;;4.37;3.20;;;;;;;2.85;98.84;98336.53;4803642;29;103189;-87
2021/03/15 02:47:52;;;;;;;4.27;2.60;;;;;;;2.88;99.42;98325.97;4806725;29;103271;-86
2021/03/15 02:50:20;;;;;;;4.00;2.70;;;;;;;2.93;98.56;98328.34;4815320;29;103848;-85
2021/03/15 02:52:52;;;;;;;4.73;2.20;;;;;;;3.02;98.43;98327.06;4807732;29;104106;-87
2021/03/15 02:55:22;;;;;;;3.20;2.90;;;;;;;3.05;97.85;98333.00;4792234;29;103068;-86
2021/03/15 02:57:50;;;;;;;3.17;1.97;;;;;;;3.11;98.39;98324.00;4804724;29;103162;-84
2021/03/15 03:00:19;;;;;;;3.83;3.00;;;;;;;3.04;97.17;98315.63;4815616;29;102732;-86
2021/03/15 03:02:48;;;;;;;4.37;2.33;;;;;;;3.04;97.80;98312.16;4805038;29;103666;-83
2021/03/15 03:05:18;;;;;;;4.57;2.50;;;;;;;3.03;97.41;98308.72;4787006;29;104436;-85
2021/03/15 03:07:52;;;;;;;3.67;3.20;;;;;;;3.06;97.67;98307.75;4822401;29;104141;-86
2021/03/15 03:10:21;;;;;;;3.43;2.87;;;;;;;2.99;97.12;98299.34;4822069;29;103380;-86
2021/03/15 03:12:51;;;;;;;4.43;3.20;;;;;;;3.05;97.15;98298.22;4833279;29;103821;-84
2021/03/15 03:15:22;;;;;;;3.27;2.23;;;;;;;3.08;97.02;98291.09;4814566;29;103168;-83
2021/03/15 03:17:51;;;;;;;6.23;3.33;;;;;;;3.06;96.69;98287.69;4817294;29;103012;-85
2021/03/15 03:20:22;;;;;;;4.57;3.10;;;;;;;3.02;96.58;98293.13;4833523;29;105675;-82
2021/03/15 03:22:52;;;;;;;3.73;3.03;;;;;;;3.00;96.33;98281.94;4833432;29;104399;-84
2021/03/15 03:25:22;;;;;;;6.40;3.30;;;;;;;2.87;96.09;98272.06;4825283;29;102984;-88
2021/03/15 03:27:53;;;;;;;3.60;2.67;;;;;;;2.73;97.54;98274.50;4831322;29;103204;-88
2021/03/15 03:30:23;;;;;;;3.40;2.60;;;;;;;2.77;97.98;98273.44;4831130;29;104021;-86
2021/03/15 03:32:51;;;;;;;4.63;3.23;;;;;;;2.83;97.83;98273.16;4815122;29;104206;-88
2021/03/15 03:35:18;;;;;;;5.73;3.33;;;;;;;2.85;97.37;98271.31;4817977;29;103079;-83
2021/03/15 03:37:45;;;;;;;4.17;3.27;;;;;;;2.70;97.18;98268.56;4834282;29;102907;-87
2021/03/15 03:40:15;;;;;;;6.37;3.27;;;;;;;2.71;97.85;98270.28;4823332;29;104061;-83
2021/03/15 03:42:43;;;;;;;2.50;2.30;;;;;;;2.77;98.35;98268.22;4828851;29;103907;-87
2021/03/15 03:45:11;;;;;;;5.87;3.50;;;;;;;2.80;98.33;98270.69;4830817;29;103233;-88
2021/03/15 03:47:39;;;;;;;4.40;3.10;;;;;;;2.81;98.73;98267.16;4795524;29;103049;-84
2021/03/15 03:50:09;;;;;;;7.00;3.87;;;;;;;2.78;98.51;98269.03;4813906;29;104115;-86
2021/03/15 03:52:37;;;;;;;4.57;2.97;;;;;;;2.84;99.35;98261.78;4813577;29;104507;-86
2021/03/15 03:55:09;;;;;;;6.03;3.10;;;;;;;2.92;99.58;98264.88;4814598;29;102975;-86
2021/03/15 03:57:40;;;;;;;4.07;2.80;;;;;;;3.03;99.84;98266.13;4818235;29;102997;-85
2021/03/15 04:00:09;;;;;;;3.57;2.90;;;;;;;3.13;99.02;98262.13;4823907;29;103798;-86
2021/03/15 04:02:43;;;;;;;5.47;2.87;;;;;;;3.19;98.89;98261.84;4821473;29;104409;-82
2021/03/15 04:05:18;;;;;;;4.60;2.77;;;;;;;3.11;99.12;98263.97;4801288;29;103230;-82
2021/03/15 04:07:49;;;;;;;4.23;3.03;;;;;;;3.21;98.57;98262.59;4833671;29;103308;-87
2021/03/15 04:10:17;;;;;;;5.07;2.73;;;;;;;3.19;98.65;98256.63;4825308;29;103320;-83
2021/03/15 04:12:53;;;;;;;3.43;2.87;;;;;;;3.25;98.41;98256.31;4808269;29;104040;-85
2021/03/15 04:15:20;;;;;;;9.00;3.30;;;;;;;3.24;98.64;98258.06;4818586;29;102859;-82
2021/03/15 04:17:49;;;;;;;6.03;3.47;;;;;;;3.29;99.03;98257.84;4811430;29;103189;-84
2021/03/15 04:20:22;;;;;;;4.60;3.23;;;;;;;3.36;99.74;98259.22;4815156;29;103871;-85
2021/03/15 04:22:55;;;;;;;6.70;3.50;;;;;;;3.31;99.92;98263.84;4826026;29;105102;-85
2021/03/15 04:25:24;;;;;;;7.33;2.90;;;;;;;3.44;99.76;98246.63;4832060;29;103019;-84
2021/03/15 04:27:53;;;;;;;6.03;3.27;;;;;;;3.36;100.00;98241.81;4824700;29;103092;-83
2021/03/15 04:30:21;;;;;;;5.10;2.73;;;;;;;3.44;100.00;98225.75;4829380;29;107359;-86
2021/03/15 04:32:53;;;;;;;3.97;3.07;;;;;;;3.42;100.00;98225.78;4796017;29;103359;-85
2021/03/15 04:35:24;;;;;;;4.07;2.70;;;;;;;3.48;100.00;98222.06;4799044;29;103065;-84
2021/03/15 04:37:52;;;;;;;3.83;3.07;;;;;;;3.49;100.00;98223.72;4829494;29;103003;-88
2021/03/15 04:40:23;;;;;;;5.60;2.47;;;;;;;3.50;100.00;98217.59;4827675;29;105730;-86
2021/03/15 04:42:51;;;;;;;4.07;2.50;;;;;;;3.57;100.00;98211.13;4821016;29;104288;-84
2021/03/15 04:45:19;;;;;;;4.20;2.60;;;;;;;3.56;99.65;98205.97;4793545;29;102944;-82
2021/03/15 04:47:47;;;;;;;3.30;2.20;;;;;;;3.57;100.00;98199.81;4808589;29;103154;-84
2021/03/15 04:50:15;;;;;;;4.53;2.47;;;;;;;3.59;99.45;98204.06;4830746;29;103899;-87
2021/03/15 04:52:45;;;;;;;6.37;3.00;;;;;;;3.58;100.00;98204.13;4814429;29;104212;-88
2021/03/15 04:55:13;;;;;;;4.60;2.60;;;;;;;3.53;100.00;98193.94;4814715;29;103168;-87
2021/03/15 04:57:41;;;;;;;4.83;2.60;;;;;;;3.61;100.00;98196.13;4819765;29;103201;-80
2021/03/15 05:00:13;;;;;;;4.93;2.43;;;;;;;3.59;100.00;98192.75;4822664;29;104105;-78
2021/03/15 05:02:43;;;;;;;5.50;2.90;;;;;;;3.62;100.00;98190.81;4817883;29;104486;-77
2021/03/15 05:05:14;;;;;;;4.10;2.27;;;;;;;3.72;99.94;98194.66;4814579;29;103060;-75
2021/03/15 05:07:45;;;;;;;3.33;2.40;;;;;;;3.79;99.49;98193.38;4811612;29;103474;-76
2021/03/15 05:10:14;;;;;;;6.07;2.57;;;;;;;3.71;99.70;98186.88;4825167;29;103758;-75
2021/03/15 05:12:42;;;;;;;6.20;2.63;;;;;;;3.74;99.65;98182.34;4822111;29;105412;-75
2021/03/15 05:15:12;;;;;;;3.77;2.63;;;;;;;3.72;99.90;98183.34;4817799;29;104147;-75
2021/03/15 05:17:40;;;;;;;3.37;2.80;;;;;;;3.75;99.34;98184.03;4833093;29;102998;-74
2021/03/15 05:20:10;;;;;;;4.63;2.60;;;;;;;3.74;99.78;98179.72;4833482;29;103559;-79
2021/03/15 05:22:41;;;;;;;3.63;2.90;;;;;;;3.70;100.00;98187.81;4825428;29;107067;-75
2021/03/15 05:25:12;;;;;;;5.47;2.90;;;;;;;3.66;100.00;98189.75;4830853;29;104235;-78
2021/03/15 05:27:40;;;;;;;6.60;2.60;;;;;;;3.59;100.00;98185.78;4829989;29;102932;-77
2021/03/15 05:30:09;;;;;;;4.27;2.93;;;;;;;3.53;100.00;98182.63;4805554;29;107124;-76
2021/03/15 05:32:44;;;;;;;6.27;3.00;;;;;;;3.57;100.00;98173.69;4832282;29;104175;-75
2021/03/15 05:35:14;;;;;;;3.53;2.83;;;;;;;3.58;100.00;98163.19;4817454;29;103251;-76
2021/03/15 05:37:42;;;;;;;5.37;2.80;;;;;;;3.52;100.00;98158.28;4822193;29;102950;-76
2021/03/15 05:40:14;;;;;;;4.40;2.70;;;;;;;3.61;100.00;98149.13;4833697;29;103860;-77
2021/03/15 05:43:05;;;;;;;5.33;3.07;;;;;;;3.61;100.00;98149.13;4832681;29;103639;-82
2021/03/15 05:45:54;;;;;;;5.80;2.90;;;;;;;3.68;100.00;98140.88;4817709;29;103081;-77
2021/03/15 05:48:55;;;;;;;5.50;2.73;;;;;;;3.61;100.00;98142.13;4813319;29;102640;-83
2021/03/15 05:52:03;;;;;;;4.57;2.90;;;;;;;3.60;100.00;98140.44;4814620;29;103380;-79
2021/03/15 05:55:12;;;;;;;4.90;3.10;;;;;;;3.56;100.00;98141.53;4814834;29;104918;-82
2021/03/15 05:58:29;;;;;;;6.90;2.67;;;;;;;3.60;100.00;98127.38;4812539;29;103016;-82
2021/03/15 06:01:10;;;;;;;3.73;1.93;;;;;;;3.56;100.00;98125.84;4815028;29;102902;-83
2021/03/15 06:04:02;;;;;;;2.83;2.50;;;;;;;3.52;100.00;98116.50;4820479;29;104021;-82
2021/03/15 06:06:38;;;;;;;4.70;2.23;;;;;;;3.65;100.00;98109.66;4814686;29;103906;-81
2021/03/15 06:09:07;;;;;;;6.07;2.57;;;;;;;3.70;100.00;98112.91;4813137;29;102963;-82
2021/03/15 06:11:40;;;;;;;4.70;2.70;;;;;;;3.77;100.00;98106.41;4805607;29;103094;-84
2021/03/15 06:14:07;;;;;;;5.57;2.70;;;;;;;3.76;100.00;98107.31;4817986;29;104093;-83
2021/03/15 06:16:35;;;;;;;4.60;2.53;;;;;;;3.74;100.00;98106.56;4816362;29;104755;-82
2021/03/15 06:19:04;;;;;;;3.17;2.17;;;;;;;3.72;100.00;98105.81;4810300;29;103204;-84
2021/03/15 06:21:31;;;;;;;2.90;2.30;;;;;;;3.73;100.00;98101.44;4820648;29;103331;-77
2021/03/15 06:23:59;;;;;;;4.87;2.40;;;;;;;3.70;100.00;98101.59;4793337;29;107315;-80
2021/03/15 06:26:27;;;;;;;3.80;1.97;;;;;;;3.75;100.00;98094.34;4816767;29;103670;-75
2021/03/15 06:28:55;;;;;;;4.27;2.53;;;;;;;3.78;100.00;98091.56;4813840;29;103326;-80
2021/03/15 06:31:23;;;;;;;3.87;2.43;;;;;;;3.73;100.00;98089.22;4811385;29;103834;-82
2021/03/15 06:33:51;;;;;;;2.73;1.90;;;;;;;3.67;100.00;98081.72;4814330;29;104488;-79
2021/03/15 06:36:19;;;;;;;2.50;2.10;;;;;;;3.73;100.00;98081.38;4797505;29;107430;-79
2021/03/15 06:38:46;;;;;;;2.67;2.03;;;;;;;3.71;100.00;98078.00;4814918;29;103209;-80
2021/03/15 06:41:15;;;;;;;2.80;2.17;;;;;;;3.78;100.00;98081.13;4817845;29;103196;-88
2021/03/15 06:43:43;;;;;;;5.20;2.43;;;;;;;3.90;100.00;98068.22;4793706;29;107188;-76
2021/03/15 06:46:15;;;;;;;3.10;2.30;;;;;;;3.95;100.00;98075.81;4804080;29;104226;-75
2021/03/15 06:48:43;;;;;;;2.30;2.20;;;;;;;4.01;98.92;98071.06;4813743;29;103289;-75
2021/03/15 06:51:10;;;;;;;3.60;2.60;;;;;;;4.03;98.46;98077.09;4814417;29;103074;-76
2021/03/15 06:53:40;;;;;;;4.27;2.40;;;;;;;4.08;98.16;98067.22;4812213;29;104274;-75
2021/03/15 06:56:12;;;;;;;4.20;2.40;;;;;;;4.05;98.75;98066.53;4816856;29;103783;-76
2021/03/15 06:58:49;;;;;;;2.43;2.07;;;;;;;4.17;98.91;98059.75;4815982;29;103058;-76
2021/03/15 07:01:18;;;;;;;5.13;2.67;;;;;;;4.15;98.58;98061.63;4780957;29;102652;-75
2021/03/15 07:03:47;;;;;;;4.00;2.50;;;;;;;4.13;97.89;98060.88;4814903;29;108376;-76
2021/03/15 07:06:18;;;;;;;2.67;2.13;;;;;;;4.24;98.18;98067.16;4823453;29;103726;-76
2021/03/15 07:08:47;;;;;;;2.30;2.03;;;;;;;4.27;98.15;98067.00;4813276;29;103427;-76
2021/03/15 07:11:24;;;;;;;2.80;2.10;;;;;;;4.31;97.67;98065.06;4815473;29;102910;-76
2021/03/15 07:13:52;;;;;;;3.53;2.07;;;;;;;4.37;98.13;98062.94;4813565;29;103881;-77
2021/03/15 07:16:28;;;;;;;2.60;1.60;;;;;;;4.48;97.31;98054.47;4797271;29;103283;-77
2021/03/15 07:18:58;;;;;;;2.47;1.90;;;;;;;4.56;96.89;98053.09;4794014;29;103329;-77
2021/03/15 07:21:37;;;;;;;3.93;2.03;;;;;;;4.66;96.62;98063.84;4815200;29;103386;-79
2021/03/15 07:24:10;;;;;;;4.40;1.77;;;;;;;4.64;96.76;98063.09;4819301;29;104473;-85
2021/03/15 07:26:43;;;;;;;2.27;1.60;;;;;;;4.55;96.53;98068.88;4808068;29;106947;-78
2021/03/15 07:29:12;;;;;;;2.50;1.70;;;;;;;4.64;97.61;98069.19;4793816;29;103541;-83
2021/03/15 07:31:43;;;;;;;2.63;1.60;;;;;;;4.45;97.96;98065.13;4814962;29;103180;-78
2021/03/15 07:34:13;;;;;;;1.47;1.30;;;;;;;4.29;97.80;98075.63;4823779;29;104059;-78
2021/03/15 07:36:49;;;;;;;3.40;1.20;;;;;;;4.17;98.75;98084.16;4789866;29;107976;-78
2021/03/15 07:39:18;;;;;;;1.57;1.10;;;;;;;3.82;99.00;98080.88;4812181;29;103562;-77
2021/03/15 07:41:47;;;;;;;1.00;0.90;;;;;;;3.93;99.46;98073.28;4808445;29;103031;-77
2021/03/15 07:44:20;;;;;;;1.40;1.10;;;;;;;3.96;99.86;98067.88;4810307;29;104234;-78
2021/03/15 07:46:49;;;;;;;3.00;1.10;;;;;;;3.92;99.47;98061.16;4808200;29;105237;-77
2021/03/15 07:49:31;;;;;;;1.10;1.00;;;;;;;3.95;99.26;98055.75;4812167;29;103605;-76
2021/03/15 07:52:02;;;;;;;1.37;1.27;;;;;;;3.94;99.29;98074.13;4805478;29;104187;-75
2021/03/15 07:54:32;;;;;;;1.10;1.00;;;;;;;3.98;99.91;98066.03;4809143;29;105287;-75
2021/03/15 07:57:28;;;;;;;1.10;0.93;;;;;;;3.97;100.00;98064.34;4804677;29;104384;-75
2021/03/15 07:59:57;;;;;;;1.10;1.00;;;;;;;4.01;100.00;98065.84;4768866;29;103447;-77
2021/03/15 08:02:27;;;;;;;1.20;1.10;;;;;;;4.23;100.00;98065.50;4792141;29;104128;-76
2021/03/15 08:04:56;;;;;;;1.37;1.20;;;;;;;4.27;99.20;98079.22;4799902;29;104163;-76
2021/03/15 08:07:29;;;;;;;2.43;1.70;;;;;;;4.43;99.72;98082.69;4800813;29;104532;-76
2021/03/15 08:10:00;;;;;;;1.47;1.23;;;;;;;4.27;99.69;98069.63;4797606;29;104503;-76
2021/03/15 08:12:31;;;;;;;1.50;1.37;;;;;;;4.22;98.85;98083.88;4801690;29;103525;-76
2021/03/15 08:15:00;;;;;;;1.13;1.03;;;;;;;4.37;97.99;98077.78;4802139;29;104497;-76
2021/03/15 08:17:29;;;;;;;2.10;1.03;;;;;;;4.37;98.01;98089.09;4801556;29;103772;-76
2021/03/15 08:19:58;;;;;;;1.20;1.03;;;;;;;4.40;98.29;98088.06;4806450;29;103940;-76
2021/03/15 08:22:28;;;;;;;2.03;1.33;;;;;;;4.65;98.35;98089.19;4809633;29;103233;-76
2021/03/15 08:24:58;;;;;;;1.57;1.13;;;;;;;4.72;97.96;98080.97;4802291;29;103376;-76
2021/03/15 08:27:29;;;;;;;2.67;1.40;;;;;;;4.78;98.17;98078.00;4801845;29;104629;-76
2021/03/15 08:30:00;;;;;;;0.90;0.90;;;;;;;4.83;97.87;98092.50;4804088;29;104456;-77
2021/03/15 08:32:34;;;;;;;1.23;0.80;;;;;;;4.87;97.44;98098.41;4802795;29;104515;-76
2021/03/15 08:35:03;;;;;;;1.20;1.00;;;;;;;4.78;98.74;98091.94;4801246;29;104634;-77
2021/03/15 08:37:54;;;;;;;2.40;1.10;;;;;;;5.01;98.01;98101.06;4801766;29;104229;-76
2021/03/15 08:41:12;;;;;;;3.43;1.60;;;;;;;4.88;98.10;98102.72;4801032;29;104550;-76
2021/03/15 08:43:41;;;;;;;1.30;1.13;;;;;;;4.92;97.61;98097.19;4744514;29;103780;-76
2021/03/15 08:46:14;;;;;;;1.20;1.10;;;;;;;5.07;99.17;98093.69;4802902;29;103892;-76
2021/03/15 08:49:03;;;;;;;1.10;1.00;;;;;;;4.84;98.14;98091.56;4804908;29;104442;-75
2021/03/15 08:51:46;;;;;;;0.80;0.80;;;;;;;4.87;98.51;98099.25;4797303;29;103511;-76
2021/03/15 08:54:36;;;;;;;1.23;1.03;;;;;;;4.93;99.13;98098.03;4809331;29;103474;-75
2021/03/15 08:57:04;;;;;;;2.03;1.00;;;;;;;5.13;98.92;98095.09;4815317;29;103591;-76
2021/03/15 08:59:33;;;;;;;1.00;0.90;;;;;;;5.12;98.79;98109.97;4811010;29;103726;-78
2021/03/15 09:02:06;;;;;;;0.83;0.80;;;;;;;5.17;97.80;98107.06;4796531;29;103562;-78
2021/03/15 09:04:47;;;;;;;1.63;0.83;;;;;;;5.32;98.35;98100.06;4800623;29;104080;-79
2021/03/15 09:07:47;;;;;;;2.70;0.90;;;;;;;5.11;98.97;98104.78;4801473;29;104020;-79
2021/03/15 09:10:42;;;;;;;1.83;0.80;;;;;;;5.18;100.00;98103.50;4820595;29;107457;-78
2021/03/15 09:13:27;;;;;;;1.40;0.80;;;;;;;5.15;99.74;98104.53;4825022;29;104409;-78
2021/03/15 09:16:01;;;;;;;1.93;1.00;;;;;;;5.11;99.98;98113.50;4819500;29;104523;-79
2021/03/15 09:18:53;;;;;;;2.50;1.37;;;;;;;5.16;100.00;98106.22;4817164;29;110221;-78
2021/03/15 09:21:53;;;;;;;1.97;1.10;;;;;;;5.11;99.22;98112.66;4831818;29;104748;-78
2021/03/15 09:24:51;;;;;;;2.87;1.00;;;;;;;5.21;99.83;98114.66;4776137;29;103854;-79
2021/03/15 09:27:33;;;;;;;1.10;1.00;;;;;;;5.18;99.72;98114.84;4803340;29;103564;-78
2021/03/15 09:30:04;;;;;;;2.90;1.20;;;;;;;5.21;99.50;98117.28;4802867;29;104279;-78
2021/03/15 09:32:35;;;;;;;2.03;0.90;;;;;;;5.16;100.00;98121.94;4786347;29;105287;-78
2021/03/15 09:35:18;;;;;;;2.47;1.07;;;;;;;5.41;100.00;98109.97;4803250;29;104344;-79
2021/03/15 09:37:52;;;;;;;4.50;1.47;;;;;;;5.56;100.00;98093.31;4801360;29;103199;-79
2021/03/15 09:40:22;;;;;;;1.60;1.30;;;;;;;5.54;100.00;98109.13;4790491;29;107094;-80
2021/03/15 09:42:50;;;;;;;2.03;1.30;;;;;;;5.60;100.00;98095.66;4791189;29;105322;-79
2021/03/15 09:45:27;;;;;;;1.20;1.10;;;;;;;5.69;100.00;98109.97;4815729;29;104336;-77
2021/03/15 09:47:56;;;;;;;2.20;1.43;;;;;;;5.61;99.07;98107.00;4815216;29;102593;-79
2021/03/15 09:50:25;;;;;;;2.67;1.33;;;;;;;5.68;99.33;98106.50;4814720;29;104461;-79
2021/03/15 09:53:11;;;;;;;1.90;1.40;;;;;;;5.71;99.29;98108.09;4805030;29;104325;-80
2021/03/15 09:55:48;;;;;;;1.70;1.47;;;;;;;5.88;98.42;98110.53;4812408;29;103504;-80
2021/03/15 09:58:17;;;;;;;2.10;1.27;;;;;;;6.00;99.03;98104.53;4787949;29;104505;-80
2021/03/15 10:00:54;;;;;;;2.80;2.10;;;;;;;5.90;97.76;98105.19;4808967;29;107866;-80
2021/03/15 10:03:52;;;;;;;1.93;1.70;;;;;;;6.05;98.08;98102.47;4781655;29;104999;-80
2021/03/15 10:06:33;;;;;;;2.03;1.80;;;;;;;6.07;97.79;98105.81;4802929;29;104169;-80
2021/03/15 10:09:20;;;;;;;2.37;1.70;;;;;;;6.18;97.32;98105.97;4804906;29;103720;-80
2021/03/15 10:12:19;;;;;;;2.17;1.97;;;;;;;6.39;97.04;98109.03;4786185;29;108629;-80
2021/03/15 10:15:07;;;;;;;2.73;2.17;;;;;;;6.33;97.49;98107.63;4806805;29;104231;-81
2021/03/15 10:17:49;;;;;;;2.37;1.80;;;;;;;6.32;97.17;98105.94;4805188;29;104248;-80
2021/03/15 10:20:45;;;;;;;2.90;1.70;;;;;;;6.40;96.68;98114.16;4791482;29;103568;-80
2021/03/15 10:23:16;;;;;;;2.10;1.67;;;;;;;6.41;95.90;98126.34;4809105;29;105006;-80
2021/03/15 10:25:56;;;;;;;1.80;1.70;;;;;;;6.45;97.17;98123.53;4808623;29;105290;-80
2021/03/15 10:28:29;;;;;;;2.13;1.90;;;;;;;6.58;97.15;98121.78;4809064;29;103277;-80
2021/03/15 10:31:17;;;;;;;1.70;1.60;;;;;;;6.67;97.29;98136.94;4808852;29;104535;-80
2021/03/15 10:33:48;;;;;;;3.27;1.60;;;;;;;6.60;96.26;98131.22;4807899;29;104386;-80
2021/03/15 10:36:19;;;;;;;2.70;1.80;;;;;;;6.54;95.29;98136.88;4806623;29;104500;-80
2021/03/15 10:38:53;;;;;;;2.00;1.80;;;;;;;6.48;95.64;98134.66;4807208;29;103173;-80
2021/03/15 10:41:20;;;;;;;1.80;1.70;;;;;;;6.70;96.02;98136.72;4794562;29;103353;-81
2021/03/15 10:43:50;;;;;;;2.80;1.70;;;;;;;6.61;94.56;98139.94;4809884;29;104588;-81
2021/03/15 10:46:29;;;;;;;2.07;1.80;;;;;;;6.73;94.65;98126.03;4814295;29;104394;-80
2021/03/15 10:49:18;;;;;;;2.00;1.80;;;;;;;7.00;95.00;98129.44;4798137;29;103470;-79
2021/03/15 10:51:50;;;;;;;2.13;1.90;;;;;;;6.74;95.94;98127.69;4807179;29;104164;-80
2021/03/15 10:54:38;;;;;;;1.77;1.60;;;;;;;6.62;94.38;98142.50;4810439;29;104348;-80
2021/03/15 10:57:18;;;;;;;2.23;1.60;;;;;;;6.88;93.77;98140.75;4785380;29;106712;-80
2021/03/15 10:59:51;;;;;;;2.20;1.60;;;;;;;6.95;94.67;98136.81;4795153;29;102996;-80
2021/03/15 11:02:23;;;;;;;1.77;1.63;;;;;;;6.76;93.09;98146.84;4808520;29;103528;-80
2021/03/15 11:04:59;;;;;;;1.80;1.70;;;;;;;6.94;92.97;98145.59;4805885;29;104130;-80
2021/03/15 11:07:38;;;;;;;1.90;1.53;;;;;;;6.89;92.67;98148.56;4790828;29;107482;-80
2021/03/15 11:10:14;;;;;;;1.70;1.60;;;;;;;6.70;91.89;98149.84;4808149;29;104617;-80
2021/03/15 11:12:52;;;;;;;1.90;1.70;;;;;;;6.88;92.87;98146.84;4811810;29;102972;-80
2021/03/15 11:15:36;;;;;;;2.17;1.90;;;;;;;7.09;92.38;98143.75;4812017;29;103861;-80
2021/03/15 11:18:14;;;;;;;1.60;1.50;;;;;;;7.10;91.43;98151.56;4818065;29;104139;-83
2021/03/15 11:20:52;;;;;;;1.97;1.80;;;;;;;6.84;91.16;98168.19;4816021;29;103013;-83
2021/03/15 11:23:30;;;;;;;1.47;1.37;;;;;;;6.98;91.31;98163.72;4813862;29;103293;-81
2021/03/15 11:26:05;;;;;;;2.60;1.70;;;;;;;6.89;90.72;98173.97;4813094;29;106732;-83
2021/03/15 11:28:38;;;;;;;3.13;1.50;;;;;;;6.83;89.89;98171.72;4793289;29;105108;-82
2021/03/15 11:31:13;;;;;;;1.60;1.50;;;;;;;6.88;91.07;98177.53;4806380;29;102559;-82
2021/03/15 11:33:41;;;;;;;2.03;1.60;;;;;;;7.07;90.97;98177.16;4800263;29;104048;-83
2021/03/15 11:36:18;;;;;;;1.60;1.50;;;;;;;6.92;90.75;98179.03;4828019;29;103793;-83
2021/03/15 11:38:59;;;;;;;1.60;1.50;;;;;;;6.71;90.05;98180.44;4834497;29;104447;-83
2021/03/15 11:41:40;;;;;;;3.00;1.63;;;;;;;6.72;90.37;98182.94;4814484;29;103115;-84
2021/03/15 11:44:08;;;;;;;2.40;1.83;;;;;;;7.10;90.25;98193.59;4833458;29;103372;-86
2021/03/15 11:46:36;;;;;;;1.77;1.53;;;;;;;7.03;91.19;98189.66;4832796;29;104660;-85
2021/03/15 11:49:06;;;;;;;1.73;1.63;;;;;;;6.88;91.25;98194.13;4807535;29;106756;-87
2021/03/15 11:51:54;;;;;;;3.00;1.90;;;;;;;7.03;89.62;98202.78;4807609;29;103113;-85
2021/03/15 11:54:29;;;;;;;1.67;1.53;;;;;;;7.15;90.29;98196.75;4832675;29;103241;-85
2021/03/15 11:56:56;;;;;;;2.80;1.63;;;;;;;7.29;86.57;98191.41;4842488;29;104148;-86
2021/03/15 11:59:28;;;;;;;2.17;1.70;;;;;;;7.53;85.94;98192.38;4847121;29;103698;-85
2021/03/15 12:02:05;;;;;;;1.53;1.37;;;;;;;7.56;83.91;98192.16;4825483;29;104177;-85
2021/03/15 12:04:35;;;;;;;1.60;1.50;;;;;;;7.61;83.61;98197.09;4837125;29;103598;-84
2021/03/15 12:07:05;;;;;;;1.50;1.40;;;;;;;7.64;85.65;98196.03;4818313;29;104899;-84
2021/03/15 12:09:56;;;;;;;2.00;1.80;;;;;;;7.28;84.94;98197.59;4819915;29;104648;-84